Aérodrome :
LOGIN :

S'inscrire | Disclaimer

   EN    FR    IT 

 










Légende :    VFR   VFR Marginal   IFR   IFR Intensif   IFR Très Intensif
Visi : 
Plafond : 
>= 8 km
>= 3000ft
5 à 8 km
1000 à 3000 ft
1500m à 5 km
500 à 1000 ft
800 à 1500m
200 à 500 ft
< 800m
< 200 ft
Symboles :   Orages  Brouillard  Fortes neiges  Fortes précipitations  Vent > 20 kt
SIGMETs :   Divers  Orages  Givrage  Turbulence  Onde Orograph.  Cendres Volcan.






- Altitude de l'aérodrome : 16 ft
- Code IATA : EAS


LESO - San Sebastian Fuenterrabia

DERNIER METAR :
  • 140330Z VRB03KT CAVOK 25/13 Q1006

METARs EXPIRÉS :
  • 140300Z AUTO 14005KT 080V190 9999 NCD 25/13 Q1006
  • 140230Z AUTO 14004KT 060V190 9999 NCD 24/13 Q1006
  • 140200Z AUTO 19004KT 150V260 9999 NCD 25/13 Q1007
  • 140130Z AUTO 17010KT 9999 NCD 25/14 Q1008
  • 140100Z AUTO 18006KT 140V220 9999 NCD 25/13 Q1008

TAF TAF LESO
Valide du 14 à 00h jusqu'au 15 à 00h UTC


132300Z 1400/1424 18012KT 9999 SCT050 TX28/1412Z TN12/1406Z
TEMPO 1400/1412 19015G27KT
BECMG 1412/1416 27012KT
TEMPO 1412/1424 27015G25KT 3000 RA SHRA SCT030TCU
PROB30
TEMPO 1414/1424 TS SCT030CB



MET'MAP, la Météo Aéronautique d'un coup d'oeil ! - Copyright ORBIFLY Décembre 2007 - Disclaimer

ORBIFLY MET'MAP TEAM :

Programmation & Développement : Alexandra Zaïnal
Conception & Développement : Baudouin d'Aumeries
Co-Programmation & Développement : Marc-Olivier Méhu
Soutien technique & logistique : Manuel Goepfert

Contact : metmap@orbifly.com




SOURCES & CREDITS :

   NOAA